sensor_id;sensor_type;location;lat;lon;timestamp;temperature;humidity
15959;DHT22;8078;47.822;9.402;2023-02-24T00:00:09;5.10;99.90
15959;DHT22;8078;47.822;9.402;2023-02-24T00:02:54;5.10;99.90
15959;DHT22;8078;47.822;9.402;2023-02-24T00:05:19;5.10;99.90
15959;DHT22;8078;47.822;9.402;2023-02-24T00:07:48;5.10;99.90
15959;DHT22;8078;47.822;9.402;2023-02-24T00:10:13;5.00;99.90
15959;DHT22;8078;47.822;9.402;2023-02-24T00:12:44;5.00;99.90
15959;DHT22;8078;47.822;9.402;2023-02-24T00:15:12;5.00;99.90
15959;DHT22;8078;47.822;9.402;2023-02-24T00:17:39;4.90;99.90
15959;DHT22;8078;47.822;9.402;2023-02-24T00:20:05;4.90;99.90
15959;DHT22;8078;47.822;9.402;2023-02-24T00:22:32;4.90;99.90
15959;DHT22;8078;47.822;9.402;2023-02-24T00:24:57;4.80;99.90
15959;DHT22;8078;47.822;9.402;2023-02-24T00:27:26;4.80;99.90
15959;DHT22;8078;47.822;9.402;2023-02-24T00:29:52;4.80;99.90
15959;DHT22;8078;47.822;9.402;2023-02-24T00:32:18;4.90;99.90
15959;DHT22;8078;47.822;9.402;2023-02-24T00:34:43;4.90;99.90
15959;DHT22;8078;47.822;9.402;2023-02-24T00:37:09;4.90;99.90
15959;DHT22;8078;47.822;9.402;2023-02-24T00:39:36;4.90;99.90
15959;DHT22;8078;47.822;9.402;2023-02-24T00:42:04;4.90;99.90
15959;DHT22;8078;47.822;9.402;2023-02-24T00:47:00;4.90;99.90
15959;DHT22;8078;47.822;9.402;2023-02-24T00:49:27;4.90;99.90
15959;DHT22;8078;47.822;9.402;2023-02-24T00:51:54;4.90;99.90
15959;DHT22;8078;47.822;9.402;2023-02-24T00:54:20;4.80;99.90
15959;DHT22;8078;47.822;9.402;2023-02-24T00:56:47;4.90;99.90
15959;DHT22;8078;47.822;9.402;2023-02-24T00:59:14;5.00;99.90
15959;DHT22;8078;47.822;9.402;2023-02-24T01:01:41;5.20;99.90
15959;DHT22;8078;47.822;9.402;2023-02-24T01:04:08;5.30;99.90
15959;DHT22;8078;47.822;9.402;2023-02-24T01:06:39;5.60;99.90
15959;DHT22;8078;47.822;9.402;2023-02-24T01:09:06;5.70;99.90
15959;DHT22;8078;47.822;9.402;2023-02-24T01:11:39;6.00;99.90
15959;DHT22;8078;47.822;9.402;2023-02-24T01:14:27;6.30;99.90
15959;DHT22;8078;47.822;9.402;2023-02-24T01:16:53;6.50;99.90
15959;DHT22;8078;47.822;9.402;2023-02-24T01:19:22;6.60;99.90
15959;DHT22;8078;47.822;9.402;2023-02-24T01:21:48;6.60;99.90
15959;DHT22;8078;47.822;9.402;2023-02-24T01:24:20;6.60;99.90
15959;DHT22;8078;47.822;9.402;2023-02-24T01:26:46;6.60;99.90
15959;DHT22;8078;47.822;9.402;2023-02-24T01:29:12;6.60;99.90
15959;DHT22;8078;47.822;9.402;2023-02-24T01:31:38;6.60;99.90
15959;DHT22;8078;47.822;9.402;2023-02-24T01:34:12;6.50;99.90
15959;DHT22;8078;47.822;9.402;2023-02-24T01:36:40;6.50;99.90
15959;DHT22;8078;47.822;9.402;2023-02-24T01:39:07;6.40;99.90
15959;DHT22;8078;47.822;9.402;2023-02-24T01:41:36;6.40;99.90
15959;DHT22;8078;47.822;9.402;2023-02-24T01:46:57;6.40;99.90
15959;DHT22;8078;47.822;9.402;2023-02-24T01:49:30;6.40;99.90
15959;DHT22;8078;47.822;9.402;2023-02-24T01:54:34;6.50;99.90
15959;DHT22;8078;47.822;9.402;2023-02-24T01:57:05;6.60;99.90
15959;DHT22;8078;47.822;9.402;2023-02-24T01:59:33;6.70;99.90
15959;DHT22;8078;47.822;9.402;2023-02-24T02:02:01;6.80;99.90
15959;DHT22;8078;47.822;9.402;2023-02-24T02:04:53;6.90;99.90
15959;DHT22;8078;47.822;9.402;2023-02-24T02:07:22;6.80;99.90
15959;DHT22;8078;47.822;9.402;2023-02-24T02:09:49;6.80;99.90
15959;DHT22;8078;47.822;9.402;2023-02-24T02:12:19;6.80;99.90
15959;DHT22;8078;47.822;9.402;2023-02-24T02:14:47;6.80;99.90
15959;DHT22;8078;47.822;9.402;2023-02-24T02:28:57;6.40;99.90
15959;DHT22;8078;47.822;9.402;2023-02-24T02:32:04;6.40;99.90
15959;DHT22;8078;47.822;9.402;2023-02-24T02:37:10;6.60;99.90
15959;DHT22;8078;47.822;9.402;2023-02-24T02:39:54;6.70;99.90
15959;DHT22;8078;47.822;9.402;2023-02-24T02:42:39;6.70;99.90
15959;DHT22;8078;47.822;9.402;2023-02-24T02:45:29;6.60;99.90
15959;DHT22;8078;47.822;9.402;2023-02-24T02:48:08;6.50;99.90
15959;DHT22;8078;47.822;9.402;2023-02-24T02:50:54;6.40;99.90
15959;DHT22;8078;47.822;9.402;2023-02-24T02:58:39;6.40;99.90
15959;DHT22;8078;47.822;9.402;2023-02-24T03:01:06;6.30;99.90
15959;DHT22;8078;47.822;9.402;2023-02-24T03:03:42;6.20;99.90
15959;DHT22;8078;47.822;9.402;2023-02-24T03:06:18;6.30;99.90
15959;DHT22;8078;47.822;9.402;2023-02-24T03:08:53;6.30;99.90
15959;DHT22;8078;47.822;9.402;2023-02-24T03:11:20;6.10;99.90
15959;DHT22;8078;47.822;9.402;2023-02-24T03:13:48;5.90;99.90
15959;DHT22;8078;47.822;9.402;2023-02-24T03:16:16;5.80;99.90
15959;DHT22;8078;47.822;9.402;2023-02-24T03:18:47;5.70;99.90
15959;DHT22;8078;47.822;9.402;2023-02-24T03:21:36;5.60;99.90
15959;DHT22;8078;47.822;9.402;2023-02-24T03:24:03;5.70;99.90
15959;DHT22;8078;47.822;9.402;2023-02-24T03:26:49;5.80;99.90
15959;DHT22;8078;47.822;9.402;2023-02-24T03:29:45;5.90;99.90
15959;DHT22;8078;47.822;9.402;2023-02-24T03:32:24;6.10;99.90
15959;DHT22;8078;47.822;9.402;2023-02-24T03:35:13;6.20;99.90
15959;DHT22;8078;47.822;9.402;2023-02-24T03:37:43;6.20;99.90
15959;DHT22;8078;47.822;9.402;2023-02-24T03:40:13;6.20;99.90
15959;DHT22;8078;47.822;9.402;2023-02-24T03:42:42;6.10;99.90
15959;DHT22;8078;47.822;9.402;2023-02-24T03:45:09;6.10;99.90
15959;DHT22;8078;47.822;9.402;2023-02-24T03:47:35;6.10;99.90
15959;DHT22;8078;47.822;9.402;2023-02-24T03:50:03;6.00;99.90
15959;DHT22;8078;47.822;9.402;2023-02-24T03:52:45;6.00;99.90
15959;DHT22;8078;47.822;9.402;2023-02-24T03:55:45;6.00;99.90
15959;DHT22;8078;47.822;9.402;2023-02-24T04:01:30;6.00;99.90
15959;DHT22;8078;47.822;9.402;2023-02-24T04:04:17;5.90;99.90
15959;DHT22;8078;47.822;9.402;2023-02-24T04:06:57;5.80;99.90
15959;DHT22;8078;47.822;9.402;2023-02-24T04:14:49;5.60;99.90
15959;DHT22;8078;47.822;9.402;2023-02-24T04:17:26;5.60;99.90
15959;DHT22;8078;47.822;9.402;2023-02-24T04:19:58;5.60;99.90
15959;DHT22;8078;47.822;9.402;2023-02-24T04:22:26;5.50;99.90
15959;DHT22;8078;47.822;9.402;2023-02-24T04:24:55;5.60;99.90
15959;DHT22;8078;47.822;9.402;2023-02-24T04:27:24;5.70;99.90
15959;DHT22;8078;47.822;9.402;2023-02-24T04:29:55;5.90;99.90
15959;DHT22;8078;47.822;9.402;2023-02-24T04:32:27;6.00;99.90
15959;DHT22;8078;47.822;9.402;2023-02-24T04:35:07;6.30;99.90
15959;DHT22;8078;47.822;9.402;2023-02-24T04:37:36;6.30;99.90
15959;DHT22;8078;47.822;9.402;2023-02-24T04:40:05;6.40;99.90
15959;DHT22;8078;47.822;9.402;2023-02-24T04:42:35;6.40;99.90
15959;DHT22;8078;47.822;9.402;2023-02-24T04:45:29;6.40;99.90
15959;DHT22;8078;47.822;9.402;2023-02-24T04:47:57;6.40;99.90
15959;DHT22;8078;47.822;9.402;2023-02-24T04:50:34;6.40;99.90
15959;DHT22;8078;47.822;9.402;2023-02-24T04:53:03;6.30;99.90
15959;DHT22;8078;47.822;9.402;2023-02-24T04:55:40;6.30;99.90
15959;DHT22;8078;47.822;9.402;2023-02-24T04:58:09;6.40;99.90
15959;DHT22;8078;47.822;9.402;2023-02-24T05:00:36;6.40;99.90
15959;DHT22;8078;47.822;9.402;2023-02-24T05:03:06;6.40;99.90
15959;DHT22;8078;47.822;9.402;2023-02-24T05:05:32;6.40;99.90
15959;DHT22;8078;47.822;9.402;2023-02-24T05:08:06;6.30;99.90
15959;DHT22;8078;47.822;9.402;2023-02-24T05:10:42;6.30;99.90
15959;DHT22;8078;47.822;9.402;2023-02-24T05:13:16;6.30;99.90
15959;DHT22;8078;47.822;9.402;2023-02-24T05:15:43;6.30;99.90
15959;DHT22;8078;47.822;9.402;2023-02-24T05:18:11;6.30;99.90
15959;DHT22;8078;47.822;9.402;2023-02-24T05:20:47;6.30;99.90
15959;DHT22;8078;47.822;9.402;2023-02-24T05:23:37;6.20;99.90
15959;DHT22;8078;47.822;9.402;2023-02-24T05:26:10;6.10;99.90
15959;DHT22;8078;47.822;9.402;2023-02-24T05:28:38;6.10;99.90
15959;DHT22;8078;47.822;9.402;2023-02-24T05:31:09;6.10;99.90
15959;DHT22;8078;47.822;9.402;2023-02-24T05:33:36;6.00;99.90
15959;DHT22;8078;47.822;9.402;2023-02-24T05:36:04;6.00;99.90
15959;DHT22;8078;47.822;9.402;2023-02-24T05:38:31;6.00;99.90
15959;DHT22;8078;47.822;9.402;2023-02-24T05:41:04;6.00;99.90
15959;DHT22;8078;47.822;9.402;2023-02-24T05:43:30;6.10;99.90
15959;DHT22;8078;47.822;9.402;2023-02-24T05:46:02;6.10;99.90
15959;DHT22;8078;47.822;9.402;2023-02-24T05:48:28;6.20;99.90
15959;DHT22;8078;47.822;9.402;2023-02-24T05:51:03;6.20;99.90
15959;DHT22;8078;47.822;9.402;2023-02-24T05:53:32;6.20;99.90
15959;DHT22;8078;47.822;9.402;2023-02-24T05:56:02;6.20;99.90
15959;DHT22;8078;47.822;9.402;2023-02-24T05:58:30;6.20;99.90
15959;DHT22;8078;47.822;9.402;2023-02-24T06:00:56;6.10;99.90
15959;DHT22;8078;47.822;9.402;2023-02-24T06:03:23;6.10;99.90
15959;DHT22;8078;47.822;9.402;2023-02-24T06:05:56;6.00;99.90
15959;DHT22;8078;47.822;9.402;2023-02-24T06:08:23;6.00;99.90
15959;DHT22;8078;47.822;9.402;2023-02-24T06:10:50;5.90;99.90
15959;DHT22;8078;47.822;9.402;2023-02-24T06:13:16;5.80;99.90
15959;DHT22;8078;47.822;9.402;2023-02-24T06:15:42;5.70;99.90
15959;DHT22;8078;47.822;9.402;2023-02-24T06:18:15;5.80;99.90
15959;DHT22;8078;47.822;9.402;2023-02-24T06:20:42;5.80;99.90
15959;DHT22;8078;47.822;9.402;2023-02-24T06:23:09;5.70;99.90
15959;DHT22;8078;47.822;9.402;2023-02-24T06:25:35;5.80;99.90
15959;DHT22;8078;47.822;9.402;2023-02-24T06:28:03;5.70;99.90
15959;DHT22;8078;47.822;9.402;2023-02-24T06:30:28;5.70;99.90
15959;DHT22;8078;47.822;9.402;2023-02-24T06:32:54;5.70;99.90
15959;DHT22;8078;47.822;9.402;2023-02-24T06:35:20;5.60;99.90
15959;DHT22;8078;47.822;9.402;2023-02-24T06:37:47;5.50;99.90
15959;DHT22;8078;47.822;9.402;2023-02-24T06:40:13;5.30;99.90
15959;DHT22;8078;47.822;9.402;2023-02-24T06:42:49;5.20;99.90
15959;DHT22;8078;47.822;9.402;2023-02-24T06:45:15;5.40;99.90
15959;DHT22;8078;47.822;9.402;2023-02-24T06:47:42;5.40;99.90
15959;DHT22;8078;47.822;9.402;2023-02-24T06:50:09;5.40;99.90
15959;DHT22;8078;47.822;9.402;2023-02-24T06:52:35;5.40;99.90
15959;DHT22;8078;47.822;9.402;2023-02-24T06:55:02;5.50;99.90
15959;DHT22;8078;47.822;9.402;2023-02-24T06:57:29;5.50;99.90
15959;DHT22;8078;47.822;9.402;2023-02-24T06:59:59;5.50;99.90
15959;DHT22;8078;47.822;9.402;2023-02-24T07:02:25;5.50;99.90
15959;DHT22;8078;47.822;9.402;2023-02-24T07:04:57;5.60;99.90
15959;DHT22;8078;47.822;9.402;2023-02-24T07:07:23;5.70;99.90
15959;DHT22;8078;47.822;9.402;2023-02-24T07:09:48;5.80;99.90
15959;DHT22;8078;47.822;9.402;2023-02-24T07:12:14;5.80;99.90
15959;DHT22;8078;47.822;9.402;2023-02-24T07:14:45;5.90;99.90
15959;DHT22;8078;47.822;9.402;2023-02-24T07:17:16;6.00;99.90
15959;DHT22;8078;47.822;9.402;2023-02-24T07:19:43;6.00;99.90
15959;DHT22;8078;47.822;9.402;2023-02-24T07:22:09;6.00;99.90
15959;DHT22;8078;47.822;9.402;2023-02-24T07:24:37;6.10;99.90
15959;DHT22;8078;47.822;9.402;2023-02-24T07:27:15;6.10;99.90
15959;DHT22;8078;47.822;9.402;2023-02-24T07:29:48;6.00;99.90
15959;DHT22;8078;47.822;9.402;2023-02-24T07:32:15;5.80;99.90
15959;DHT22;8078;47.822;9.402;2023-02-24T07:34:42;5.60;99.90
15959;DHT22;8078;47.822;9.402;2023-02-24T07:37:09;5.50;99.90
15959;DHT22;8078;47.822;9.402;2023-02-24T07:39:36;5.30;99.90
15959;DHT22;8078;47.822;9.402;2023-02-24T07:42:02;5.20;99.90
15959;DHT22;8078;47.822;9.402;2023-02-24T07:44:27;5.10;99.90
15959;DHT22;8078;47.822;9.402;2023-02-24T07:46:54;5.00;99.90
15959;DHT22;8078;47.822;9.402;2023-02-24T07:49:23;4.90;99.90
15959;DHT22;8078;47.822;9.402;2023-02-24T07:51:50;4.80;99.90
15959;DHT22;8078;47.822;9.402;2023-02-24T07:54:20;5.00;99.90
15959;DHT22;8078;47.822;9.402;2023-02-24T07:56:48;4.90;99.90
15959;DHT22;8078;47.822;9.402;2023-02-24T07:59:22;4.80;99.90
15959;DHT22;8078;47.822;9.402;2023-02-24T08:01:48;4.80;99.90
15959;DHT22;8078;47.822;9.402;2023-02-24T08:04:18;4.80;99.90
15959;DHT22;8078;47.822;9.402;2023-02-24T08:06:44;4.80;99.90
15959;DHT22;8078;47.822;9.402;2023-02-24T08:11:46;5.00;99.90
15959;DHT22;8078;47.822;9.402;2023-02-24T08:14:15;4.80;99.90
15959;DHT22;8078;47.822;9.402;2023-02-24T08:16:44;4.80;99.90
15959;DHT22;8078;47.822;9.402;2023-02-24T08:19:12;5.00;99.90
15959;DHT22;8078;47.822;9.402;2023-02-24T08:21:40;5.10;99.90
15959;DHT22;8078;47.822;9.402;2023-02-24T08:24:12;5.00;99.90
15959;DHT22;8078;47.822;9.402;2023-02-24T08:26:46;5.10;99.90
15959;DHT22;8078;47.822;9.402;2023-02-24T08:29:18;5.00;99.90
15959;DHT22;8078;47.822;9.402;2023-02-24T08:31:45;5.20;99.90
15959;DHT22;8078;47.822;9.402;2023-02-24T08:34:11;5.20;99.90
15959;DHT22;8078;47.822;9.402;2023-02-24T08:36:40;5.70;99.90
15959;DHT22;8078;47.822;9.402;2023-02-24T08:39:11;5.80;99.90
15959;DHT22;8078;47.822;9.402;2023-02-24T08:41:39;6.00;99.90
15959;DHT22;8078;47.822;9.402;2023-02-24T08:44:15;6.00;99.90
15959;DHT22;8078;47.822;9.402;2023-02-24T08:46:45;6.20;99.90
15959;DHT22;8078;47.822;9.402;2023-02-24T08:49:14;6.40;99.90
15959;DHT22;8078;47.822;9.402;2023-02-24T08:51:43;6.50;99.90
15959;DHT22;8078;47.822;9.402;2023-02-24T08:54:15;6.90;99.90
15959;DHT22;8078;47.822;9.402;2023-02-24T08:56:46;7.20;99.90
15959;DHT22;8078;47.822;9.402;2023-02-24T08:59:21;7.10;99.90
15959;DHT22;8078;47.822;9.402;2023-02-24T09:05:08;7.50;99.90
15959;DHT22;8078;47.822;9.402;2023-02-24T09:07:38;7.80;99.90
15959;DHT22;8078;47.822;9.402;2023-02-24T09:10:10;7.70;99.90
15959;DHT22;8078;47.822;9.402;2023-02-24T09:12:36;7.90;99.90
15959;DHT22;8078;47.822;9.402;2023-02-24T09:15:06;7.80;99.90
15959;DHT22;8078;47.822;9.402;2023-02-24T09:17:32;7.90;99.90
15959;DHT22;8078;47.822;9.402;2023-02-24T09:20:24;7.70;99.90
15959;DHT22;8078;47.822;9.402;2023-02-24T09:23:28;7.70;99.90
15959;DHT22;8078;47.822;9.402;2023-02-24T09:25:55;7.40;99.90
15959;DHT22;8078;47.822;9.402;2023-02-24T09:28:23;7.30;99.90
15959;DHT22;8078;47.822;9.402;2023-02-24T09:30:56;7.00;99.90
15959;DHT22;8078;47.822;9.402;2023-02-24T09:33:34;6.90;99.90
15959;DHT22;8078;47.822;9.402;2023-02-24T09:36:11;7.20;99.90
15959;DHT22;8078;47.822;9.402;2023-02-24T09:38:44;7.30;99.90
15959;DHT22;8078;47.822;9.402;2023-02-24T09:44:34;7.70;99.90
15959;DHT22;8078;47.822;9.402;2023-02-24T09:47:13;7.80;99.90
15959;DHT22;8078;47.822;9.402;2023-02-24T09:49:52;7.90;99.90
15959;DHT22;8078;47.822;9.402;2023-02-24T09:52:28;7.70;99.90
15959;DHT22;8078;47.822;9.402;2023-02-24T09:58:31;7.70;99.90
15959;DHT22;8078;47.822;9.402;2023-02-24T10:04:03;8.00;99.90
15959;DHT22;8078;47.822;9.402;2023-02-24T10:06:41;8.20;99.90
15959;DHT22;8078;47.822;9.402;2023-02-24T10:12:17;8.10;99.90
15959;DHT22;8078;47.822;9.402;2023-02-24T10:15:01;8.10;99.90
15959;DHT22;8078;47.822;9.402;2023-02-24T10:17:59;7.90;99.90
15959;DHT22;8078;47.822;9.402;2023-02-24T10:20:35;7.60;99.90
15959;DHT22;8078;47.822;9.402;2023-02-24T10:26:08;7.80;99.90
15959;DHT22;8078;47.822;9.402;2023-02-24T10:31:48;7.70;99.90
15959;DHT22;8078;47.822;9.402;2023-02-24T10:34:23;7.70;99.90
15959;DHT22;8078;47.822;9.402;2023-02-24T10:37:14;7.60;99.90
15959;DHT22;8078;47.822;9.402;2023-02-24T10:39:44;7.60;99.90
15959;DHT22;8078;47.822;9.402;2023-02-24T10:42:28;7.60;99.90
15959;DHT22;8078;47.822;9.402;2023-02-24T10:45:24;7.80;99.90
15959;DHT22;8078;47.822;9.402;2023-02-24T10:47:54;7.90;99.90
15959;DHT22;8078;47.822;9.402;2023-02-24T10:50:26;8.00;99.90
15959;DHT22;8078;47.822;9.402;2023-02-24T10:52:54;7.80;99.90
15959;DHT22;8078;47.822;9.402;2023-02-24T10:55:31;8.00;99.90
15959;DHT22;8078;47.822;9.402;2023-02-24T11:01:06;8.30;99.90
15959;DHT22;8078;47.822;9.402;2023-02-24T11:03:39;8.20;99.90
15959;DHT22;8078;47.822;9.402;2023-02-24T11:06:24;8.30;99.90
15959;DHT22;8078;47.822;9.402;2023-02-24T11:12:13;8.30;99.90
15959;DHT22;8078;47.822;9.402;2023-02-24T11:15:01;8.50;99.90
15959;DHT22;8078;47.822;9.402;2023-02-24T11:17:56;8.60;99.90
15959;DHT22;8078;47.822;9.402;2023-02-24T11:20:42;8.60;99.90
15959;DHT22;8078;47.822;9.402;2023-02-24T11:23:14;8.70;99.90
15959;DHT22;8078;47.822;9.402;2023-02-24T11:25:48;8.80;99.90
15959;DHT22;8078;47.822;9.402;2023-02-24T11:31:21;8.90;99.90
15959;DHT22;8078;47.822;9.402;2023-02-24T11:34:09;8.90;99.90
15959;DHT22;8078;47.822;9.402;2023-02-24T11:37:06;8.90;99.90
15959;DHT22;8078;47.822;9.402;2023-02-24T11:45:24;9.10;99.90
15959;DHT22;8078;47.822;9.402;2023-02-24T11:47:58;9.10;99.90
15959;DHT22;8078;47.822;9.402;2023-02-24T11:55:42;9.70;99.90
15959;DHT22;8078;47.822;9.402;2023-02-24T11:58:23;9.80;99.90
15959;DHT22;8078;47.822;9.402;2023-02-24T12:03:36;10.40;99.90
15959;DHT22;8078;47.822;9.402;2023-02-24T12:06:36;10.60;99.90
15959;DHT22;8078;47.822;9.402;2023-02-24T12:09:11;10.80;99.90
15959;DHT22;8078;47.822;9.402;2023-02-24T12:11:58;10.60;99.90
15959;DHT22;8078;47.822;9.402;2023-02-24T12:14:38;10.20;99.90
15959;DHT22;8078;47.822;9.402;2023-02-24T12:17:10;9.80;99.90
15959;DHT22;8078;47.822;9.402;2023-02-24T12:20:14;9.80;99.90
15959;DHT22;8078;47.822;9.402;2023-02-24T12:22:49;9.60;99.90
15959;DHT22;8078;47.822;9.402;2023-02-24T12:25:18;9.70;99.90
15959;DHT22;8078;47.822;9.402;2023-02-24T12:33:49;10.00;99.90
15959;DHT22;8078;47.822;9.402;2023-02-24T12:36:41;9.80;99.90
15959;DHT22;8078;47.822;9.402;2023-02-24T12:39:19;9.80;99.90
15959;DHT22;8078;47.822;9.402;2023-02-24T12:42:00;9.50;99.90
15959;DHT22;8078;47.822;9.402;2023-02-24T12:52:44;9.50;99.90
15959;DHT22;8078;47.822;9.402;2023-02-24T12:57:59;9.40;99.90
15959;DHT22;8078;47.822;9.402;2023-02-24T13:00:43;9.30;99.90
15959;DHT22;8078;47.822;9.402;2023-02-24T13:09:07;9.50;99.90
15959;DHT22;8078;47.822;9.402;2023-02-24T13:11:42;9.60;99.90
15959;DHT22;8078;47.822;9.402;2023-02-24T13:14:27;9.80;99.90
15959;DHT22;8078;47.822;9.402;2023-02-24T13:19:36;9.80;99.90
15959;DHT22;8078;47.822;9.402;2023-02-24T13:24:40;9.90;99.90
15959;DHT22;8078;47.822;9.402;2023-02-24T13:29:43;9.90;99.90
15959;DHT22;8078;47.822;9.402;2023-02-24T13:32:32;10.00;99.90
15959;DHT22;8078;47.822;9.402;2023-02-24T13:37:50;9.90;99.90
15959;DHT22;8078;47.822;9.402;2023-02-24T13:45:27;9.80;99.90
15959;DHT22;8078;47.822;9.402;2023-02-24T13:50:37;9.90;99.90
15959;DHT22;8078;47.822;9.402;2023-02-24T13:53:11;10.10;99.90
15959;DHT22;8078;47.822;9.402;2023-02-24T14:01:10;10.00;99.90
15959;DHT22;8078;47.822;9.402;2023-02-24T14:03:39;10.00;99.90
15959;DHT22;8078;47.822;9.402;2023-02-24T14:06:06;10.00;99.90
15959;DHT22;8078;47.822;9.402;2023-02-24T14:08:44;10.40;99.90
15959;DHT22;8078;47.822;9.402;2023-02-24T14:11:14;10.60;99.90
15959;DHT22;8078;47.822;9.402;2023-02-24T14:13:45;10.90;99.90
15959;DHT22;8078;47.822;9.402;2023-02-24T14:16:17;10.80;99.90
15959;DHT22;8078;47.822;9.402;2023-02-24T14:18:52;11.10;99.90
15959;DHT22;8078;47.822;9.402;2023-02-24T14:21:24;11.10;99.90
15959;DHT22;8078;47.822;9.402;2023-02-24T14:24:01;11.10;99.90
15959;DHT22;8078;47.822;9.402;2023-02-24T14:26:29;11.20;99.90
15959;DHT22;8078;47.822;9.402;2023-02-24T14:28:59;11.30;99.90
15959;DHT22;8078;47.822;9.402;2023-02-24T14:31:26;10.80;99.90
15959;DHT22;8078;47.822;9.402;2023-02-24T14:34:03;10.80;99.90
15959;DHT22;8078;47.822;9.402;2023-02-24T14:36:35;10.60;99.90
15959;DHT22;8078;47.822;9.402;2023-02-24T14:39:11;10.60;99.90
15959;DHT22;8078;47.822;9.402;2023-02-24T14:41:38;10.70;99.90
15959;DHT22;8078;47.822;9.402;2023-02-24T14:44:14;10.80;99.90
15959;DHT22;8078;47.822;9.402;2023-02-24T14:46:49;11.10;99.90
15959;DHT22;8078;47.822;9.402;2023-02-24T14:49:21;11.00;99.90
15959;DHT22;8078;47.822;9.402;2023-02-24T14:51:51;11.20;99.90
15959;DHT22;8078;47.822;9.402;2023-02-24T14:54:25;11.40;99.90
15959;DHT22;8078;47.822;9.402;2023-02-24T14:56:54;11.30;99.90
15959;DHT22;8078;47.822;9.402;2023-02-24T14:59:30;10.70;99.90
15959;DHT22;8078;47.822;9.402;2023-02-24T15:01:57;10.80;99.90
15959;DHT22;8078;47.822;9.402;2023-02-24T15:06:49;11.10;99.90
15959;DHT22;8078;47.822;9.402;2023-02-24T15:09:28;11.10;99.90
15959;DHT22;8078;47.822;9.402;2023-02-24T15:11:57;10.80;99.90
15959;DHT22;8078;47.822;9.402;2023-02-24T15:14:25;10.50;99.90
15959;DHT22;8078;47.822;9.402;2023-02-24T15:16:58;10.40;99.90
15959;DHT22;8078;47.822;9.402;2023-02-24T15:21:56;10.70;99.90
15959;DHT22;8078;47.822;9.402;2023-02-24T15:24:30;10.90;99.90
15959;DHT22;8078;47.822;9.402;2023-02-24T15:27:02;10.60;99.90
15959;DHT22;8078;47.822;9.402;2023-02-24T15:29:43;10.20;99.90
15959;DHT22;8078;47.822;9.402;2023-02-24T15:32:15;9.80;99.90
15959;DHT22;8078;47.822;9.402;2023-02-24T15:34:44;9.50;99.90
15959;DHT22;8078;47.822;9.402;2023-02-24T15:37:28;8.90;99.90
15959;DHT22;8078;47.822;9.402;2023-02-24T15:40:21;8.40;99.90
15959;DHT22;8078;47.822;9.402;2023-02-24T15:42:59;8.00;99.90
15959;DHT22;8078;47.822;9.402;2023-02-24T15:45:34;7.70;99.90
15959;DHT22;8078;47.822;9.402;2023-02-24T15:48:02;7.30;99.90
15959;DHT22;8078;47.822;9.402;2023-02-24T15:50:29;7.00;99.90
15959;DHT22;8078;47.822;9.402;2023-02-24T15:52:57;6.90;99.90
15959;DHT22;8078;47.822;9.402;2023-02-24T15:55:25;6.90;99.90
15959;DHT22;8078;47.822;9.402;2023-02-24T15:57:57;6.90;99.90
15959;DHT22;8078;47.822;9.402;2023-02-24T16:00:23;6.90;99.90
15959;DHT22;8078;47.822;9.402;2023-02-24T16:02:49;6.90;99.90
15959;DHT22;8078;47.822;9.402;2023-02-24T16:05:14;7.00;99.90
15959;DHT22;8078;47.822;9.402;2023-02-24T16:07:43;7.00;99.90
15959;DHT22;8078;47.822;9.402;2023-02-24T16:10:35;7.00;99.90
15959;DHT22;8078;47.822;9.402;2023-02-24T16:13:01;7.10;99.90
15959;DHT22;8078;47.822;9.402;2023-02-24T16:15:32;7.20;99.90
15959;DHT22;8078;47.822;9.402;2023-02-24T16:18:00;7.10;99.90
15959;DHT22;8078;47.822;9.402;2023-02-24T16:20:29;7.10;99.90
15959;DHT22;8078;47.822;9.402;2023-02-24T16:22:57;7.10;99.90
15959;DHT22;8078;47.822;9.402;2023-02-24T16:25:25;7.20;99.90
15959;DHT22;8078;47.822;9.402;2023-02-24T16:27:51;7.20;99.90
15959;DHT22;8078;47.822;9.402;2023-02-24T16:30:23;7.30;99.90
15959;DHT22;8078;47.822;9.402;2023-02-24T16:32:49;7.30;99.90
15959;DHT22;8078;47.822;9.402;2023-02-24T16:35:15;7.30;99.90
15959;DHT22;8078;47.822;9.402;2023-02-24T16:37:44;7.30;99.90
15959;DHT22;8078;47.822;9.402;2023-02-24T16:40:25;7.30;99.90
15959;DHT22;8078;47.822;9.402;2023-02-24T16:42:52;7.20;99.90
15959;DHT22;8078;47.822;9.402;2023-02-24T16:45:19;7.30;99.90
15959;DHT22;8078;47.822;9.402;2023-02-24T16:47:47;7.30;99.90
15959;DHT22;8078;47.822;9.402;2023-02-24T16:50:20;7.40;99.90
15959;DHT22;8078;47.822;9.402;2023-02-24T16:52:46;7.50;99.90
15959;DHT22;8078;47.822;9.402;2023-02-24T16:55:13;7.50;99.90
15959;DHT22;8078;47.822;9.402;2023-02-24T16:57:39;7.60;99.90
15959;DHT22;8078;47.822;9.402;2023-02-24T17:00:05;7.60;99.90
15959;DHT22;8078;47.822;9.402;2023-02-24T17:02:31;7.70;99.90
15959;DHT22;8078;47.822;9.402;2023-02-24T17:04:57;7.70;99.90
15959;DHT22;8078;47.822;9.402;2023-02-24T17:07:22;7.70;99.90
15959;DHT22;8078;47.822;9.402;2023-02-24T17:09:48;7.70;99.90
15959;DHT22;8078;47.822;9.402;2023-02-24T17:12:16;7.70;99.90
15959;DHT22;8078;47.822;9.402;2023-02-24T17:14:43;7.60;99.90
15959;DHT22;8078;47.822;9.402;2023-02-24T17:17:09;7.20;99.90
15959;DHT22;8078;47.822;9.402;2023-02-24T17:19:36;7.00;99.90
15959;DHT22;8078;47.822;9.402;2023-02-24T17:22:02;6.90;99.90
15959;DHT22;8078;47.822;9.402;2023-02-24T17:24:28;6.80;99.90
15959;DHT22;8078;47.822;9.402;2023-02-24T17:26:55;6.80;99.90
15959;DHT22;8078;47.822;9.402;2023-02-24T17:29:24;6.80;99.90
15959;DHT22;8078;47.822;9.402;2023-02-24T17:31:50;6.70;99.90
15959;DHT22;8078;47.822;9.402;2023-02-24T17:34:16;6.50;99.90
15959;DHT22;8078;47.822;9.402;2023-02-24T17:36:41;6.30;99.90
15959;DHT22;8078;47.822;9.402;2023-02-24T17:39:07;6.10;99.90
15959;DHT22;8078;47.822;9.402;2023-02-24T17:41:32;6.10;99.90
15959;DHT22;8078;47.822;9.402;2023-02-24T17:43:58;6.10;99.90
15959;DHT22;8078;47.822;9.402;2023-02-24T17:46:23;6.10;99.90
15959;DHT22;8078;47.822;9.402;2023-02-24T17:48:49;6.10;99.90
15959;DHT22;8078;47.822;9.402;2023-02-24T17:51:16;6.10;99.90
15959;DHT22;8078;47.822;9.402;2023-02-24T17:53:41;6.10;99.90
15959;DHT22;8078;47.822;9.402;2023-02-24T17:56:07;6.20;99.90
15959;DHT22;8078;47.822;9.402;2023-02-24T17:58:34;6.10;99.90
15959;DHT22;8078;47.822;9.402;2023-02-24T18:01:00;6.10;99.90
15959;DHT22;8078;47.822;9.402;2023-02-24T18:03:33;6.20;99.90
15959;DHT22;8078;47.822;9.402;2023-02-24T18:06:05;6.30;99.90
15959;DHT22;8078;47.822;9.402;2023-02-24T18:08:32;6.40;99.90
15959;DHT22;8078;47.822;9.402;2023-02-24T18:10:58;6.50;99.90
15959;DHT22;8078;47.822;9.402;2023-02-24T18:13:25;6.50;99.90
15959;DHT22;8078;47.822;9.402;2023-02-24T18:15:51;6.70;99.90
15959;DHT22;8078;47.822;9.402;2023-02-24T18:18:16;6.70;99.90
15959;DHT22;8078;47.822;9.402;2023-02-24T18:20:43;6.60;99.90
15959;DHT22;8078;47.822;9.402;2023-02-24T18:23:10;6.70;99.90
15959;DHT22;8078;47.822;9.402;2023-02-24T18:25:36;6.70;99.90
15959;DHT22;8078;47.822;9.402;2023-02-24T18:28:02;6.70;99.90
15959;DHT22;8078;47.822;9.402;2023-02-24T18:30:28;6.70;99.90
15959;DHT22;8078;47.822;9.402;2023-02-24T18:32:54;6.80;99.90
15959;DHT22;8078;47.822;9.402;2023-02-24T18:35:19;6.80;99.90
15959;DHT22;8078;47.822;9.402;2023-02-24T18:37:50;6.90;99.90
15959;DHT22;8078;47.822;9.402;2023-02-24T18:40:24;6.90;99.90
15959;DHT22;8078;47.822;9.402;2023-02-24T18:42:50;7.00;99.90